Terminal Aerodrome Forecast
Issued by NWS

Home | Current Version | Previous Version | Text Only | Print | Product List | Glossary On
Versions: 1 2 3 4 5 6 7 8 9 10 11 12 13 14 15 16 17 18 19 20 21 22 23 24 25
572
FTUS44 KBMX 280540
TAFTCL
TAF
KTCL 280540Z 2806/0106 14007KT 6SM BR OVC006
     FM280900 13004KT 2SM -DZ BR OVC004
      TEMPO 2811/2814 1/2SM FG OVC003
     FM281600 15006KT P6SM VCSH OVC007
     FM281900 18010KT P6SM SCT007 OVC013=

USA.gov is the U.S. government's official web portal to all federal, state and local government web resources and services.